Time;durP1;ratioP1;P1;durP2;ratioP2;P2;SDS_P1;SDS_P2;PMS_P1;PMS_P2;Temp;Humidity;BMP_temperature;BMP_pressure;BME280_temperature;BME280_humidity;BME280_pressure;Samples;Min_cycle;Max_cycle;Signal;HPM_P1;HPM_P2
2022/03/10 00:00:08;;;;;;;64.82;32.85;;;;;;;2.56;55.84;102268.94;5029414;28;20490;-71
2022/03/10 00:02:34;;;;;;;63.10;32.38;;;;;;;2.56;55.72;102273.25;5030250;28;20033;-72
2022/03/10 00:05:00;;;;;;;33.65;21.05;;;;;;;2.48;56.75;102277.19;5029890;28;20371;-72
2022/03/10 00:07:26;;;;;;;40.53;24.05;;;;;;;2.36;56.45;102269.78;4996889;28;20059;-72
2022/03/10 00:09:51;;;;;;;41.95;24.80;;;;;;;2.29;56.67;102278.06;4997609;28;20090;-72
2022/03/10 00:12:18;;;;;;;38.67;22.33;;;;;;;2.25;57.37;102279.63;4997289;28;20025;-72
2022/03/10 00:14:43;;;;;;;56.65;28.73;;;;;;;2.21;56.87;102278.63;4996895;28;20037;-72
2022/03/10 00:17:09;;;;;;;73.15;36.53;;;;;;;2.19;57.60;102276.75;4990983;28;20045;-71
2022/03/10 00:19:35;;;;;;;46.05;24.33;;;;;;;2.16;57.54;102284.38;5011356;28;20041;-72
2022/03/10 00:22:01;;;;;;;33.78;19.33;;;;;;;2.11;57.92;102286.72;5024124;28;20547;-71
2022/03/10 00:24:26;;;;;;;38.00;22.05;;;;;;;1.96;58.28;102281.75;5030310;28;20025;-71
2022/03/10 00:26:55;;;;;;;34.85;17.38;;;;;;;1.84;58.81;102278.56;4997389;28;20033;-72
2022/03/10 00:29:23;;;;;;;32.65;20.77;;;;;;;1.72;58.95;102278.88;5007275;28;20057;-73
2022/03/10 00:31:48;;;;;;;38.05;20.35;;;;;;;1.73;59.40;102283.25;4994906;28;20052;-73
2022/03/10 00:34:14;;;;;;;45.92;26.25;;;;;;;1.75;59.43;102275.56;4997402;28;20399;-73
2022/03/10 00:36:39;;;;;;;99.80;47.10;;;;;;;1.78;59.19;102274.03;5013223;28;20128;-73
2022/03/10 00:39:05;;;;;;;65.00;33.83;;;;;;;1.76;59.07;102278.22;4999246;28;20041;-73
2022/03/10 00:41:31;;;;;;;38.95;24.15;;;;;;;1.67;59.48;102281.25;5012230;28;20049;-72
2022/03/10 00:43:57;;;;;;;39.47;23.05;;;;;;;1.62;59.67;102287.91;5013108;28;20040;-73
2022/03/10 00:46:23;;;;;;;44.08;23.55;;;;;;;1.59;59.72;102282.59;5011845;28;20029;-73
2022/03/10 00:48:48;;;;;;;44.92;23.45;;;;;;;1.62;59.63;102287.91;5029289;28;20021;-73
2022/03/10 00:51:13;;;;;;;39.47;23.33;;;;;;;1.58;60.49;102290.25;4995383;28;20117;-73
2022/03/10 00:53:41;;;;;;;39.45;21.98;;;;;;;1.50;60.67;102283.03;5013090;28;20045;-73
2022/03/10 00:56:07;;;;;;;39.10;21.90;;;;;;;1.43;60.45;102286.13;4995967;28;20373;-73
2022/03/10 00:58:32;;;;;;;38.42;21.90;;;;;;;1.38;60.86;102287.63;5013329;28;20544;-73
2022/03/10 01:00:58;;;;;;;34.50;21.88;;;;;;;1.35;60.58;102280.59;5012029;28;20030;-73
2022/03/10 01:03:23;;;;;;;33.35;20.98;;;;;;;1.34;60.76;102294.31;5028241;28;20128;-73
2022/03/10 01:05:49;;;;;;;35.80;21.23;;;;;;;1.28;61.14;102285.38;5011293;28;20029;-73
2022/03/10 01:08:15;;;;;;;37.08;20.05;;;;;;;1.29;61.15;102287.16;5028622;28;20060;-72
2022/03/10 01:10:43;;;;;;;37.50;20.20;;;;;;;1.27;61.18;102292.22;5028918;28;20397;-73
2022/03/10 01:13:14;;;;;;;34.00;20.52;;;;;;;1.23;61.24;102292.88;5028866;28;20032;-72
2022/03/10 01:15:41;;;;;;;40.13;22.85;;;;;;;1.24;61.36;102297.25;5008928;28;20022;-72
2022/03/10 01:18:07;;;;;;;136.82;54.38;;;;;;;1.25;60.63;102291.28;4980568;28;20113;-72
2022/03/10 01:20:33;;;;;;;77.35;39.20;;;;;;;1.25;61.12;102295.53;5012682;28;20045;-71
2022/03/10 01:22:59;;;;;;;154.63;69.80;;;;;;;1.25;61.16;102290.38;5026700;28;20499;-72
2022/03/10 01:25:24;;;;;;;86.50;43.33;;;;;;;1.21;61.12;102289.34;5017339;28;20029;-72
2022/03/10 01:27:52;;;;;;;41.45;22.73;;;;;;;1.11;61.61;102284.56;5013299;28;20483;-73
2022/03/10 01:30:18;;;;;;;32.83;20.15;;;;;;;0.99;61.37;102293.44;4995931;28;20068;-74
2022/03/10 01:32:46;;;;;;;40.10;21.02;;;;;;;0.93;62.09;102284.50;5029073;28;20036;-73
2022/03/10 01:35:12;;;;;;;41.60;22.23;;;;;;;0.94;62.20;102286.28;5010389;28;20026;-72
2022/03/10 01:37:38;;;;;;;72.93;39.22;;;;;;;0.96;61.66;102284.66;5004095;28;20118;-73
2022/03/10 01:40:10;;;;;;;50.22;26.98;;;;;;;0.97;62.38;102282.13;5012546;28;20505;-72
2022/03/10 01:42:36;;;;;;;38.65;21.52;;;;;;;0.94;62.38;102278.53;5028907;28;20112;-72
2022/03/10 01:45:02;;;;;;;35.92;21.00;;;;;;;0.91;62.38;102289.56;5029258;28;20025;-72
2022/03/10 01:47:28;;;;;;;30.13;19.52;;;;;;;0.86;62.45;102296.19;5028911;28;20033;-72
2022/03/10 01:49:54;;;;;;;46.47;23.30;;;;;;;0.86;62.50;102285.84;4999501;28;20038;-72
2022/03/10 01:52:20;;;;;;;35.22;20.90;;;;;;;0.85;62.76;102286.69;5011013;28;20030;-72
2022/03/10 01:54:46;;;;;;;51.10;27.10;;;;;;;0.85;63.02;102281.53;5012395;28;20038;-72
2022/03/10 01:57:11;;;;;;;82.80;44.60;;;;;;;0.88;62.86;102286.84;5029149;28;20758;-72
2022/03/10 01:59:40;;;;;;;46.40;28.45;;;;;;;0.92;62.50;102275.88;5012338;28;20037;-72
2022/03/10 02:02:07;;;;;;;44.97;21.33;;;;;;;0.86;62.84;102276.44;5012515;28;20057;-72
2022/03/10 02:04:35;;;;;;;33.83;20.45;;;;;;;0.78;62.54;102282.03;4996784;28;20117;-72
2022/03/10 02:07:03;;;;;;;34.38;19.95;;;;;;;0.73;63.21;102275.72;5010260;28;20037;-73
2022/03/10 02:12:12;;;;;;;37.28;18.42;;;;;;;0.67;63.42;102278.88;5002511;28;20394;-73
2022/03/10 02:17:24;;;;;;;35.53;19.95;;;;;;;0.61;63.90;102278.56;5020924;28;20551;-72
2022/03/10 02:19:55;;;;;;;43.08;18.95;;;;;;;0.59;64.02;102275.00;4990380;28;20077;-72
2022/03/10 02:22:23;;;;;;;;;;;;;;;0.61;61.49;102276.84;5026219;28;20029;-72
2022/03/10 02:24:50;;;;;;;34.35;18.67;;;;;;;0.58;64.35;102274.13;5029781;28;19999;-73
2022/03/10 02:27:27;;;;;;;45.22;25.33;;;;;;;0.58;64.21;102273.25;5015335;28;20090;-73
2022/03/10 02:29:59;;;;;;;44.58;24.50;;;;;;;0.60;64.39;102264.75;5012877;28;20045;-73
2022/03/10 02:32:28;;;;;;;50.00;26.25;;;;;;;0.64;64.20;102278.72;5029563;28;20120;-73
2022/03/10 02:34:57;;;;;;;36.05;19.73;;;;;;;0.63;64.36;102271.78;5014709;28;20029;-72
2022/03/10 02:37:28;;;;;;;41.95;21.35;;;;;;;0.63;64.43;102275.25;5030562;28;20026;-73
2022/03/10 02:39:53;;;;;;;43.53;23.20;;;;;;;0.63;64.47;102277.84;5015041;28;20028;-72
2022/03/10 02:42:21;;;;;;;38.33;20.42;;;;;;;0.65;64.09;102277.91;4992821;28;20033;-72
2022/03/10 02:44:53;;;;;;;32.97;19.35;;;;;;;0.66;64.34;102280.59;4999407;28;20088;-72
2022/03/10 02:47:21;;;;;;;38.08;21.02;;;;;;;0.65;64.47;102271.06;5029745;28;20503;-72
2022/03/10 02:49:46;;;;;;;35.63;19.73;;;;;;;0.65;64.48;102265.91;4999453;28;20466;-72
2022/03/10 02:52:14;;;;;;;37.92;20.10;;;;;;;0.62;64.62;102268.31;5012895;28;20065;-72
2022/03/10 02:54:40;;;;;;;39.65;23.30;;;;;;;0.64;64.75;102274.44;5013088;28;20041;-72
2022/03/10 02:57:06;;;;;;;42.97;20.95;;;;;;;0.66;64.87;102271.94;5020319;28;20497;-72
2022/03/10 02:59:34;;;;;;;28.98;18.25;;;;;;;0.67;64.48;102281.44;5031201;28;20029;-72
2022/03/10 03:01:59;;;;;;;29.42;18.35;;;;;;;0.55;64.43;102276.56;5022923;28;20080;-72
2022/03/10 03:04:26;;;;;;;28.48;18.05;;;;;;;0.50;65.24;102280.56;4998223;28;20033;-72
2022/03/10 03:06:52;;;;;;;30.42;17.55;;;;;;;0.47;65.38;102275.25;5031128;28;20040;-73
2022/03/10 03:09:20;;;;;;;30.73;18.50;;;;;;;0.48;64.44;102282.19;5031632;28;20112;-72
2022/03/10 03:11:46;;;;;;;27.60;17.50;;;;;;;0.34;65.26;102279.78;5009242;28;20121;-72
2022/03/10 03:14:11;;;;;;;31.77;18.42;;;;;;;0.32;65.12;102278.78;4991202;28;20776;-72
2022/03/10 03:16:39;;;;;;;32.47;19.10;;;;;;;0.28;65.59;102281.13;4993216;28;20104;-72
2022/03/10 03:19:05;;;;;;;33.63;20.35;;;;;;;0.24;66.03;102281.78;5025953;28;20528;-72
2022/03/10 03:21:33;;;;;;;38.97;19.58;;;;;;;0.16;66.20;102286.53;5012462;28;20037;-72
2022/03/10 03:23:59;;;;;;;40.35;19.13;;;;;;;0.09;66.36;102284.41;5025551;28;20017;-73
2022/03/10 03:26:24;;;;;;;47.83;21.67;;;;;;;0.06;66.81;102286.81;5010518;28;20032;-72
2022/03/10 03:28:50;;;;;;;32.47;19.33;;;;;;;0.06;66.95;102281.66;5013908;28;20065;-73
2022/03/10 03:31:16;;;;;;;38.35;19.40;;;;;;;0.09;66.50;102287.00;5013213;28;20037;-72
2022/03/10 03:33:42;;;;;;;29.40;18.13;;;;;;;0.09;66.45;102284.41;5011557;28;20022;-72
2022/03/10 03:36:08;;;;;;;28.58;17.23;;;;;;;0.13;67.09;102281.19;5012649;28;20115;-73
2022/03/10 03:38:36;;;;;;;36.83;20.23;;;;;;;0.15;66.19;102290.78;5011743;28;20052;-73
2022/03/10 03:41:02;;;;;;;34.13;18.38;;;;;;;0.13;66.39;102288.91;5030154;28;20055;-74
2022/03/10 03:43:30;;;;;;;34.58;18.63;;;;;;;0.05;66.15;102296.25;5031206;28;20440;-73
2022/03/10 03:45:58;;;;;;;33.42;17.85;;;;;;;0.03;66.89;102286.66;4994941;28;20022;-73
2022/03/10 03:48:24;;;;;;;31.88;18.80;;;;;;;0.00;66.53;102295.13;4997993;28;20029;-73
2022/03/10 03:50:53;;;;;;;33.00;18.17;;;;;;;0.01;66.59;102289.13;4997866;28;20064;-73
2022/03/10 03:53:19;;;;;;;43.05;16.75;;;;;;;-0.08;66.49;102294.69;5010109;28;20026;-73
2022/03/10 03:55:44;;;;;;;28.83;17.17;;;;;;;-0.08;66.99;102301.53;4994975;28;20022;-73
2022/03/10 03:58:11;;;;;;;28.35;16.67;;;;;;;-0.16;66.80;102301.09;5013980;28;20030;-74
2022/03/10 04:00:37;;;;;;;34.70;16.75;;;;;;;-0.21;66.94;102297.38;5005349;28;20494;-73
2022/03/10 04:03:09;;;;;;;28.10;17.10;;;;;;;-0.27;67.57;102303.09;5014088;28;20033;-73
2022/03/10 04:05:36;;;;;;;31.58;17.52;;;;;;;-0.31;67.52;102301.13;5030013;28;20030;-73
2022/03/10 04:08:02;;;;;;;33.45;17.05;;;;;;;-0.36;67.15;102303.47;5029841;28;20155;-73
2022/03/10 04:10:30;;;;;;;36.88;18.80;;;;;;;-0.40;67.36;102298.94;4992614;28;20478;-73
2022/03/10 04:12:55;;;;;;;32.80;19.48;;;;;;;-0.43;67.32;102303.91;4997780;28;20025;-73
2022/03/10 04:15:21;;;;;;;32.05;17.88;;;;;;;-0.40;67.72;102306.66;4995696;28;20029;-73
2022/03/10 04:17:46;;;;;;;34.30;17.45;;;;;;;-0.43;67.54;102316.78;5015163;28;20069;-73
2022/03/10 04:20:13;;;;;;;33.63;17.65;;;;;;;-0.49;67.74;102312.97;4997967;28;20022;-73
2022/03/10 04:22:40;;;;;;;34.55;17.48;;;;;;;-0.54;67.95;102320.44;5029461;28;20086;-72
2022/03/10 04:25:07;;;;;;;45.08;19.80;;;;;;;-0.57;68.12;102318.56;4994635;28;20091;-73
2022/03/10 04:27:32;;;;;;;36.42;19.77;;;;;;;-0.66;68.28;102317.13;5010900;28;20059;-72
2022/03/10 04:29:58;;;;;;;34.05;18.95;;;;;;;-0.71;68.70;102320.34;5013381;28;20081;-73
2022/03/10 04:32:23;;;;;;;28.73;19.17;;;;;;;-0.81;68.74;102314.56;4978088;28;20030;-72
2022/03/10 04:34:51;;;;;;;28.45;18.73;;;;;;;-0.90;68.97;102313.22;4994680;28;20021;-72
2022/03/10 04:37:19;;;;;;;32.33;17.73;;;;;;;-1.00;68.89;102310.91;4996182;28;20030;-72
2022/03/10 04:39:45;;;;;;;26.45;16.65;;;;;;;-1.08;69.25;102315.63;5023455;28;20033;-72
2022/03/10 04:42:10;;;;;;;36.20;18.45;;;;;;;-1.13;69.76;102319.59;5012670;28;20030;-72
2022/03/10 04:44:36;;;;;;;37.10;18.92;;;;;;;-1.14;70.68;102314.34;4997292;28;20045;-72
2022/03/10 04:47:02;;;;;;;33.58;16.85;;;;;;;-1.14;70.37;102315.22;4991401;28;20068;-73
2022/03/10 04:49:27;;;;;;;30.45;19.33;;;;;;;-1.21;70.50;102315.66;5010621;28;20021;-72
2022/03/10 04:51:57;;;;;;;36.60;19.02;;;;;;;-1.27;70.10;102312.72;5008146;28;20025;-72
2022/03/10 04:54:22;;;;;;;30.10;17.75;;;;;;;-1.30;70.25;102316.00;4992750;28;20025;-72
2022/03/10 04:56:48;;;;;;;37.00;19.17;;;;;;;-1.36;70.67;102315.63;5013143;28;20041;-71
2022/03/10 04:59:13;;;;;;;31.60;19.70;;;;;;;-1.42;70.80;102313.59;4996947;28;20370;-71
2022/03/10 05:01:39;;;;;;;27.60;17.10;;;;;;;-1.48;70.60;102315.78;5021078;28;20056;-72
2022/03/10 05:04:04;;;;;;;38.97;20.80;;;;;;;-1.52;70.70;102310.34;4995867;28;20486;-72
2022/03/10 05:06:30;;;;;;;29.27;17.65;;;;;;;-1.52;71.35;102318.97;5012337;28;20029;-71
2022/03/10 05:08:55;;;;;;;35.58;19.27;;;;;;;-1.50;71.51;102313.91;5029466;28;20069;-71
2022/03/10 05:11:21;;;;;;;31.20;18.88;;;;;;;-1.52;71.60;102315.47;5028229;28;20025;-71
2022/03/10 05:13:46;;;;;;;36.08;19.95;;;;;;;-1.51;71.31;102319.84;4981834;28;20525;-72
2022/03/10 05:16:11;;;;;;;34.95;20.10;;;;;;;-1.56;71.75;102322.13;5006508;28;20044;-74
2022/03/10 05:18:37;;;;;;;35.83;18.70;;;;;;;-1.60;71.46;102317.59;4995103;28;20029;-74
2022/03/10 05:21:03;;;;;;;30.38;17.10;;;;;;;-1.66;70.86;102317.22;4993091;28;20378;-73
2022/03/10 05:23:31;;;;;;;28.05;18.05;;;;;;;-1.71;71.86;102319.53;5029140;28;20437;-73
2022/03/10 05:25:57;;;;;;;35.75;19.50;;;;;;;-1.72;72.31;102320.31;5026089;28;20095;-73
2022/03/10 05:28:25;;;;;;;34.40;19.55;;;;;;;-1.75;71.43;102325.25;4994511;28;20046;-73
2022/03/10 05:30:51;;;;;;;29.15;18.17;;;;;;;-1.78;71.64;102325.03;4996176;28;20034;-73
2022/03/10 05:33:16;;;;;;;33.33;18.98;;;;;;;-1.86;71.50;102318.56;5028989;28;20087;-73
2022/03/10 05:35:41;;;;;;;32.20;18.10;;;;;;;-1.92;71.67;102329.34;4996378;28;20060;-73
2022/03/10 05:38:07;;;;;;;35.97;18.80;;;;;;;-2.04;71.40;102333.69;5012066;28;20118;-73
2022/03/10 05:40:33;;;;;;;33.15;19.77;;;;;;;-2.11;72.29;102323.03;4992854;28;20132;-73
2022/03/10 05:42:58;;;;;;;31.80;18.67;;;;;;;-2.10;73.06;102323.91;4996572;28;20175;-73
2022/03/10 05:45:24;;;;;;;37.70;19.15;;;;;;;-2.07;73.64;102326.66;5010847;28;20561;-73
2022/03/10 05:47:54;;;;;;;30.48;17.10;;;;;;;-2.09;73.03;102324.00;4991814;28;20035;-73
2022/03/10 05:50:21;;;;;;;30.67;17.88;;;;;;;-2.06;72.54;102328.44;5000078;28;20093;-73
2022/03/10 05:52:47;;;;;;;29.75;17.33;;;;;;;-2.10;73.00;102327.38;5011182;28;20087;-73
2022/03/10 05:55:13;;;;;;;31.45;19.05;;;;;;;-2.09;73.36;102323.13;5003545;28;20026;-72
2022/03/10 05:57:39;;;;;;;36.47;18.10;;;;;;;-2.09;73.54;102329.13;5009778;28;20523;-73
2022/03/10 06:00:05;;;;;;;28.85;17.15;;;;;;;-2.10;73.19;102321.34;4990038;28;20475;-73
2022/03/10 06:02:31;;;;;;;30.52;18.25;;;;;;;-2.13;73.51;102321.16;5015515;28;20084;-74
2022/03/10 06:05:00;;;;;;;32.47;16.02;;;;;;;-2.15;73.61;102323.63;5030835;28;20063;-73
2022/03/10 06:07:26;;;;;;;35.63;17.75;;;;;;;-2.14;73.49;102325.41;5010992;28;20040;-73
2022/03/10 06:09:54;;;;;;;38.65;19.40;;;;;;;-2.17;73.56;102314.94;4996150;28;20138;-73
2022/03/10 06:12:21;;;;;;;34.20;18.15;;;;;;;-2.16;73.64;102321.84;5013067;28;20034;-73
2022/03/10 06:14:46;;;;;;;36.65;18.48;;;;;;;-2.13;74.27;102322.03;5011295;28;20103;-74
2022/03/10 06:17:12;;;;;;;42.25;18.17;;;;;;;-2.08;73.97;102324.91;5014740;28;20112;-74
2022/03/10 06:19:37;;;;;;;31.10;18.30;;;;;;;-2.00;73.29;102326.25;5014238;28;20029;-73
2022/03/10 06:22:05;;;;;;;36.17;18.13;;;;;;;-1.95;73.50;102326.56;5013887;28;20021;-73
2022/03/10 06:24:33;;;;;;;38.17;19.38;;;;;;;-1.82;73.25;102331.69;4998882;28;20040;-73
2022/03/10 06:26:58;;;;;;;31.20;17.40;;;;;;;-1.59;73.07;102332.25;4992668;28;20037;-73
2022/03/10 06:29:24;;;;;;;36.65;17.77;;;;;;;-1.36;71.98;102335.34;5011887;28;20049;-73
2022/03/10 06:31:51;;;;;;;29.02;16.85;;;;;;;-1.18;71.63;102326.13;4988777;28;20500;-73
2022/03/10 06:34:19;;;;;;;31.98;16.50;;;;;;;-0.95;70.94;102327.53;4987712;28;20470;-74
2022/03/10 06:36:45;;;;;;;34.42;18.95;;;;;;;-0.73;70.60;102336.50;5004299;28;20037;-73
2022/03/10 06:39:10;;;;;;;32.55;17.60;;;;;;;-0.54;69.93;102335.88;5007018;28;20037;-73
2022/03/10 06:41:36;;;;;;;34.30;18.58;;;;;;;-0.15;69.82;102336.38;5012229;28;20339;-73
2022/03/10 06:44:01;;;;;;;35.65;18.55;;;;;;;0.61;67.95;102341.34;4999071;28;20033;-73
2022/03/10 06:46:26;;;;;;;32.78;19.67;;;;;;;1.54;65.88;102330.59;4998089;28;20480;-73
2022/03/10 06:48:52;;;;;;;34.35;18.40;;;;;;;2.39;63.91;102327.69;5015877;28;20030;-73
2022/03/10 06:51:17;;;;;;;29.85;18.83;;;;;;;3.38;61.38;102334.59;4995409;28;20088;-74
2022/03/10 06:53:43;;;;;;;27.35;17.40;;;;;;;4.24;57.69;102338.84;4993834;28;20033;-73
2022/03/10 06:56:11;;;;;;;35.70;18.10;;;;;;;4.96;54.67;102338.03;4995238;28;20042;-73
2022/03/10 06:58:40;;;;;;;28.58;18.23;;;;;;;5.67;53.49;102341.28;5012871;28;20513;-73
2022/03/10 07:01:05;;;;;;;26.63;17.38;;;;;;;6.30;50.34;102341.53;4979985;28;20034;-73
2022/03/10 07:03:31;;;;;;;32.60;20.30;;;;;;;6.99;50.72;102343.50;5005107;28;20037;-74
2022/03/10 07:05:56;;;;;;;30.85;20.48;;;;;;;7.54;47.60;102337.94;4996221;28;20029;-73
2022/03/10 07:08:21;;;;;;;34.30;19.88;;;;;;;8.00;46.40;102340.78;4997910;28;20470;-73
2022/03/10 07:10:47;;;;;;;31.90;19.13;;;;;;;8.53;44.62;102345.44;5015691;28;20043;-73
2022/03/10 07:13:12;;;;;;;30.00;20.58;;;;;;;8.84;43.53;102341.72;5030249;28;20029;-74
2022/03/10 07:15:38;;;;;;;32.97;20.17;;;;;;;9.35;43.54;102345.25;5028667;28;20052;-73
2022/03/10 07:18:05;;;;;;;37.20;19.27;;;;;;;9.81;41.89;102351.28;5014270;28;20470;-74
2022/03/10 07:20:31;;;;;;;31.55;20.38;;;;;;;10.21;41.49;102345.72;5015681;28;20420;-74
2022/03/10 07:22:57;;;;;;;32.47;20.88;;;;;;;10.62;40.52;102350.69;4999064;28;20029;-73
2022/03/10 07:25:22;;;;;;;30.30;21.98;;;;;;;10.78;39.80;102351.72;4998089;28;20048;-74
2022/03/10 07:27:48;;;;;;;28.10;19.17;;;;;;;11.18;38.89;102346.91;5015542;28;20512;-73
2022/03/10 07:30:15;;;;;;;33.30;20.10;;;;;;;11.41;37.73;102341.88;5013739;28;20492;-74
2022/03/10 07:32:43;;;;;;;33.38;23.10;;;;;;;11.59;37.64;102342.88;5031429;28;20025;-73
2022/03/10 07:35:09;;;;;;;31.75;19.85;;;;;;;11.97;36.96;102344.97;5030835;28;20105;-73
2022/03/10 07:37:35;;;;;;;36.97;22.73;;;;;;;12.28;36.70;102345.13;5032897;28;20084;-73
2022/03/10 07:40:00;;;;;;;30.25;21.20;;;;;;;12.45;34.29;102346.09;4999954;28;20125;-73
2022/03/10 07:42:26;;;;;;;30.73;22.52;;;;;;;12.70;34.79;102346.22;4993366;28;20032;-73
2022/03/10 07:44:52;;;;;;;30.30;21.02;;;;;;;12.71;34.88;102342.69;5032200;28;20044;-73
2022/03/10 07:47:18;;;;;;;35.30;21.42;;;;;;;12.94;34.34;102345.41;5045751;28;20119;-73
2022/03/10 07:49:44;;;;;;;32.15;21.52;;;;;;;13.20;33.13;102341.06;5051474;28;20037;-73
2022/03/10 07:52:12;;;;;;;28.73;19.40;;;;;;;13.67;32.45;102343.72;5021311;28;20033;-73
2022/03/10 07:54:40;;;;;;;34.92;22.92;;;;;;;13.71;33.46;102334.06;5031304;28;20408;-73
2022/03/10 07:57:05;;;;;;;35.42;23.35;;;;;;;14.04;33.19;102341.03;4998962;28;20485;-73
2022/03/10 07:59:31;;;;;;;33.83;25.50;;;;;;;14.47;31.92;102334.75;5013736;28;20061;-73
2022/03/10 08:01:56;;;;;;;32.60;23.10;;;;;;;14.57;31.77;102343.53;4997673;28;20029;-73
2022/03/10 08:04:22;;;;;;;30.83;22.65;;;;;;;14.97;30.73;102339.81;5010966;28;20038;-73
2022/03/10 08:06:47;;;;;;;27.25;19.40;;;;;;;15.35;30.09;102336.91;5029917;28;20035;-74
2022/03/10 08:09:13;;;;;;;35.63;23.70;;;;;;;15.55;29.40;102339.38;5014855;28;20054;-73
2022/03/10 08:11:39;;;;;;;32.72;22.20;;;;;;;15.66;30.05;102344.59;5014007;28;20048;-73
2022/03/10 08:14:06;;;;;;;33.10;24.33;;;;;;;16.20;29.70;102340.53;5014785;28;20033;-73
2022/03/10 08:16:35;;;;;;;39.55;24.60;;;;;;;16.52;29.35;102341.91;5012761;28;20059;-73
2022/03/10 08:19:01;;;;;;;36.65;23.85;;;;;;;16.94;29.26;102332.56;5030191;28;20496;-73
2022/03/10 08:21:27;;;;;;;33.90;24.27;;;;;;;17.03;29.16;102343.91;5011416;28;20033;-74
2022/03/10 08:23:53;;;;;;;33.85;23.25;;;;;;;16.84;28.76;102349.44;5030834;28;20440;-73
2022/03/10 08:26:19;;;;;;;53.30;32.78;;;;;;;17.04;27.34;102349.19;5013189;28;20033;-74
2022/03/10 08:28:50;;;;;;;90.75;54.40;;;;;;;17.14;27.41;102349.94;5014263;28;20057;-74
2022/03/10 08:31:17;;;;;;;32.63;23.55;;;;;;;17.46;27.20;102332.63;5029714;28;20040;-74
2022/03/10 08:33:42;;;;;;;28.30;22.38;;;;;;;17.93;27.72;102333.59;4997077;28;20037;-74
2022/03/10 08:36:08;;;;;;;38.10;23.75;;;;;;;18.58;26.64;102334.94;5030320;28;20500;-73
2022/03/10 08:38:33;;;;;;;29.95;24.02;;;;;;;19.01;27.01;102325.19;4997346;28;20037;-73
2022/03/10 08:40:59;;;;;;;32.92;24.38;;;;;;;19.63;26.08;102328.97;5013253;28;20486;-74
2022/03/10 08:43:28;;;;;;;30.23;22.50;;;;;;;20.04;25.11;102325.22;5029843;28;20099;-74
2022/03/10 08:45:56;;;;;;;44.83;25.63;;;;;;;19.99;23.83;102332.44;5013791;28;20120;-74
2022/03/10 08:48:21;;;;;;;45.40;30.95;;;;;;;19.68;24.69;102322.63;5029979;28;20025;-74
2022/03/10 08:50:46;;;;;;;30.27;21.83;;;;;;;19.94;25.76;102328.16;5013451;28;20041;-73
2022/03/10 08:53:12;;;;;;;30.48;22.60;;;;;;;20.12;25.24;102324.13;4996482;28;20047;-74
2022/03/10 08:55:39;;;;;;;37.20;21.30;;;;;;;20.70;24.75;102330.44;5012989;28;20026;-74
2022/03/10 08:58:04;;;;;;;42.78;29.70;;;;;;;20.89;23.08;102322.75;5021590;28;20033;-74
2022/03/10 09:00:30;;;;;;;36.42;22.48;;;;;;;21.03;23.39;102335.63;5012893;28;20505;-74
2022/03/10 09:02:59;;;;;;;34.55;22.10;;;;;;;21.41;24.07;102327.28;5029523;28;20095;-74
2022/03/10 09:05:25;;;;;;;33.00;22.05;;;;;;;21.73;23.16;102318.19;5027341;28;20037;-74
2022/03/10 09:07:50;;;;;;;29.02;20.73;;;;;;;22.43;21.03;102319.22;4996133;28;20091;-72
2022/03/10 09:10:16;;;;;;;34.80;23.50;;;;;;;22.44;21.95;102323.66;5013787;28;20131;-72
2022/03/10 09:12:41;;;;;;;30.33;22.08;;;;;;;22.74;21.21;102307.34;4996704;28;20038;-72
2022/03/10 09:15:08;;;;;;;36.95;25.02;;;;;;;21.97;21.60;102310.25;4996585;28;20454;-72
2022/03/10 09:17:33;;;;;;;35.58;23.60;;;;;;;21.27;21.88;102303.75;5012431;28;20051;-73
2022/03/10 09:19:59;;;;;;;45.28;28.55;;;;;;;20.56;23.53;102309.50;5012714;28;20469;-72
2022/03/10 09:22:25;;;;;;;28.65;21.42;;;;;;;20.71;23.85;102305.53;5010073;28;20087;-72
2022/03/10 09:24:52;;;;;;;32.15;22.73;;;;;;;20.56;23.23;102306.84;5024880;28;20029;-72
2022/03/10 09:27:18;;;;;;;37.20;25.42;;;;;;;20.09;24.07;102295.81;5018599;28;20113;-72
2022/03/10 09:29:44;;;;;;;48.30;30.70;;;;;;;18.34;25.71;102297.38;4983131;28;20178;-72
2022/03/10 09:32:09;;;;;;;44.40;26.85;;;;;;;16.43;28.08;102293.53;5013205;28;20029;-73
2022/03/10 09:34:35;;;;;;;52.15;32.95;;;;;;;14.66;30.15;102295.13;5018026;28;20033;-73
2022/03/10 09:37:01;;;;;;;42.67;27.95;;;;;;;13.76;34.13;102284.00;4998401;28;20034;-72
2022/03/10 09:39:26;;;;;;;48.47;31.67;;;;;;;13.02;33.94;102295.41;5003083;28;20041;-72
2022/03/10 09:41:57;;;;;;;45.03;26.75;;;;;;;12.92;37.41;102288.38;5002080;28;20209;-71
2022/03/10 09:44:26;;;;;;;36.00;24.00;;;;;;;13.00;35.77;102287.53;5022450;28;20037;-71
2022/03/10 09:46:53;;;;;;;60.70;37.22;;;;;;;12.65;35.56;102290.06;5025607;28;20064;-72
2022/03/10 09:49:21;;;;;;;51.00;32.53;;;;;;;12.54;36.54;102289.16;5000296;28;20171;-71
2022/03/10 09:51:49;;;;;;;37.80;24.77;;;;;;;12.51;37.00;102287.38;4995149;28;20069;-72
2022/03/10 09:54:16;;;;;;;94.80;53.97;;;;;;;13.21;35.46;102279.66;5019799;28;20045;-73
2022/03/10 09:56:45;;;;;;;49.15;33.20;;;;;;;15.27;32.24;102283.28;5011610;28;20033;-73
2022/03/10 09:59:12;;;;;;;48.22;29.70;;;;;;;16.50;30.40;102277.56;5013580;28;20041;-72
2022/03/10 10:01:38;;;;;;;51.78;31.60;;;;;;;17.26;29.28;102275.53;5021556;28;20088;-73
2022/03/10 10:04:07;;;;;;;34.72;22.98;;;;;;;18.43;27.55;102274.22;5012131;28;20476;-73
2022/03/10 10:07:21;;;;;;;41.00;28.23;;;;;;;20.02;24.65;102272.97;4996566;28;20479;-73
2022/03/10 10:09:55;;;;;;;36.50;25.05;;;;;;;19.90;25.09;102280.38;5017778;28;20042;-73
2022/03/10 10:12:27;;;;;;;38.58;23.98;;;;;;;19.95;26.12;102274.06;5006946;28;20068;-71
2022/03/10 10:14:57;;;;;;;35.72;25.17;;;;;;;20.08;24.54;102273.66;5022258;28;20691;-72
2022/03/10 10:17:32;;;;;;;37.50;24.77;;;;;;;19.96;26.18;102273.16;5018282;28;20021;-73
2022/03/10 10:20:01;;;;;;;39.95;29.27;;;;;;;20.37;26.22;102263.94;5023550;28;20061;-72
2022/03/10 10:22:29;;;;;;;33.72;21.48;;;;;;;21.14;23.73;102268.63;5001075;28;20033;-73
2022/03/10 10:25:05;;;;;;;38.75;23.30;;;;;;;21.00;23.52;102263.75;5009699;28;20132;-71
2022/03/10 10:27:34;;;;;;;34.42;22.88;;;;;;;21.25;24.63;102263.81;5013889;28;20102;-71
2022/03/10 10:30:06;;;;;;;30.55;22.27;;;;;;;22.69;23.55;102260.38;5020963;28;20140;-72
2022/03/10 10:32:55;;;;;;;40.10;25.67;;;;;;;23.51;22.04;102249.81;4998456;28;20088;-72
2022/03/10 10:35:21;;;;;;;33.53;22.80;;;;;;;23.48;21.57;102249.94;5009274;28;20052;-73
2022/03/10 10:37:50;;;;;;;34.95;24.80;;;;;;;23.65;22.03;102257.22;5004734;28;20120;-72
2022/03/10 10:40:21;;;;;;;32.85;21.88;;;;;;;23.65;22.16;102249.22;5026176;28;20072;-73
2022/03/10 10:42:47;;;;;;;29.80;22.40;;;;;;;22.69;23.03;102257.69;5017308;28;20120;-71
2022/03/10 10:45:36;;;;;;;35.22;23.27;;;;;;;22.94;23.54;102241.50;5002125;28;20040;-72
2022/03/10 10:48:08;;;;;;;32.30;22.30;;;;;;;22.58;22.85;102248.28;5023038;28;20389;-73
2022/03/10 10:50:36;;;;;;;29.92;20.55;;;;;;;23.18;23.66;102239.63;5022636;28;20033;-72
2022/03/10 10:53:04;;;;;;;32.80;20.23;;;;;;;23.96;22.56;102246.00;5022731;28;20052;-72
2022/03/10 10:55:48;;;;;;;41.65;27.88;;;;;;;25.24;19.27;102247.88;5024584;28;20040;-72
2022/03/10 10:58:14;;;;;;;29.00;20.70;;;;;;;24.62;19.80;102241.19;5024418;28;20037;-74
2022/03/10 11:00:49;;;;;;;27.83;18.55;;;;;;;25.09;21.66;102237.94;4991559;28;20037;-73
2022/03/10 11:03:23;;;;;;;92.75;53.00;;;;;;;25.54;19.23;102239.22;4990681;28;20096;-73
2022/03/10 11:05:51;;;;;;;31.08;20.60;;;;;;;25.85;19.70;102236.69;5009300;28;20036;-72
2022/03/10 11:08:22;;;;;;;26.48;19.42;;;;;;;26.39;20.16;102229.22;5019184;28;20041;-72
2022/03/10 11:10:49;;;;;;;38.92;21.48;;;;;;;27.22;19.19;102219.94;5008115;28;20478;-72
2022/03/10 11:13:15;;;;;;;32.85;21.38;;;;;;;26.28;19.18;102223.59;5006389;28;20527;-73
2022/03/10 11:15:46;;;;;;;31.88;21.80;;;;;;;26.09;19.19;102227.31;4993879;28;20042;-73